createdAt,value
2022-11-14T00:01:25.227Z,101301.63
2022-11-14T00:03:54.949Z,101303.84
2022-11-14T00:06:24.828Z,101298.81
2022-11-14T00:08:52.342Z,101299.34
2022-11-14T00:11:19.873Z,101285.09
2022-11-14T00:13:47.513Z,101289.44
2022-11-14T00:16:14.999Z,101290.66
2022-11-14T00:18:42.570Z,101284.31
2022-11-14T00:21:10.081Z,101289.84
2022-11-14T00:23:37.580Z,101282.31
2022-11-14T00:26:05.065Z,101286.84
2022-11-14T00:28:32.972Z,101275.44
2022-11-14T00:31:03.169Z,101280.81
2022-11-14T00:33:30.684Z,101279.50
2022-11-14T00:36:00.926Z,101287.53
2022-11-14T00:38:31.171Z,101284.84
2022-11-14T00:40:58.923Z,101286.88
2022-11-14T00:43:26.426Z,101288.19
2022-11-14T00:45:53.938Z,101283.53
2022-11-14T00:48:21.541Z,101275.84
2022-11-14T00:50:49.111Z,101278.88
2022-11-14T00:53:16.992Z,101276.19
2022-11-14T00:55:44.588Z,101285.91
2022-11-14T00:58:12.137Z,101289.25
2022-11-14T01:00:41.913Z,101287.91
2022-11-14T01:03:11.853Z,101260.75
2022-11-14T01:05:48.003Z,101289.75
2022-11-14T01:08:19.580Z,101284.25
2022-11-14T01:10:50.594Z,101282.75
2022-11-14T01:13:22.017Z,101269.16
2022-11-14T01:15:54.468Z,101283.25
2022-11-14T01:18:22.822Z,101275.72
2022-11-14T01:20:50.484Z,101269.50
2022-11-14T01:23:18.613Z,101264.16
2022-11-14T01:25:46.509Z,101262.47
2022-11-14T01:28:16.912Z,101268.19
2022-11-14T01:30:44.651Z,101265.03
2022-11-14T01:33:14.660Z,101268.06
2022-11-14T01:35:42.173Z,101255.47
2022-11-14T01:38:14.346Z,101254.81
2022-11-14T01:40:46.480Z,101258.00
2022-11-14T01:43:20.173Z,101261.16
2022-11-14T01:45:58.684Z,101263.19
2022-11-14T01:48:32.483Z,101263.19
2022-11-14T01:51:07.214Z,101249.28
2022-11-14T01:53:36.965Z,101257.81
2022-11-14T01:56:09.582Z,101251.44
2022-11-14T01:58:39.562Z,101250.56
2022-11-14T02:01:07.641Z,101243.37
2022-11-14T02:03:43.544Z,101229.66
2022-11-14T02:06:15.204Z,101243.87
2022-11-14T02:08:46.040Z,101243.37
2022-11-14T02:11:13.907Z,101235.34
2022-11-14T02:13:43.646Z,101241.34
2022-11-14T02:16:16.724Z,101235.16
2022-11-14T02:18:46.690Z,101241.00
2022-11-14T02:21:16.449Z,101238.62
2022-11-14T02:23:43.941Z,101242.09
2022-11-14T02:26:11.558Z,101234.09
2022-11-14T02:28:39.180Z,101203.44
2022-11-14T02:31:09.057Z,101242.25
2022-11-14T02:33:36.569Z,101240.59
2022-11-14T02:36:06.247Z,101238.25
2022-11-14T02:38:36.501Z,101232.53
2022-11-14T02:41:04.471Z,101236.78
2022-11-14T02:43:32.012Z,101234.25
2022-11-14T02:46:04.415Z,101232.25
2022-11-14T02:48:35.630Z,101234.25
2022-11-14T02:51:03.524Z,101237.78
2022-11-14T02:53:31.022Z,101232.41
2022-11-14T02:56:00.488Z,101234.63
2022-11-14T02:58:30.783Z,101232.44
2022-11-14T03:01:19.666Z,101233.78
2022-11-14T03:03:48.085Z,101224.25
2022-11-14T03:06:15.662Z,101228.97
2022-11-14T03:08:43.388Z,101227.28
2022-11-14T03:11:11.849Z,101225.97
2022-11-14T03:13:39.400Z,101228.81
2022-11-14T03:16:11.758Z,101223.31
2022-11-14T03:18:39.539Z,101222.47
2022-11-14T03:21:16.376Z,101219.94
2022-11-14T03:23:44.204Z,101216.25
2022-11-14T03:26:13.230Z,101225.12
2022-11-14T03:28:41.756Z,101229.84
2022-11-14T03:31:13.833Z,101217.97
2022-11-14T03:33:45.982Z,101222.66
2022-11-14T03:36:13.465Z,101212.28
2022-11-14T03:38:41.007Z,101217.66
2022-11-14T03:41:10.952Z,101217.34
2022-11-14T03:43:43.087Z,101214.81
2022-11-14T03:46:10.581Z,101213.78
2022-11-14T03:48:38.124Z,101217.47
2022-11-14T03:51:05.673Z,101197.91
2022-11-14T03:53:35.466Z,101219.50
2022-11-14T03:56:03.092Z,101219.69
2022-11-14T03:58:30.987Z,101228.06
2022-11-14T04:00:59.309Z,101222.41
2022-11-14T04:03:26.938Z,101217.03
2022-11-14T04:05:54.481Z,101214.00
2022-11-14T04:08:22.182Z,101205.12
2022-11-14T04:10:50.112Z,101211.31
2022-11-14T04:13:17.661Z,101200.94
2022-11-14T04:15:45.188Z,101194.22
2022-11-14T04:18:12.875Z,101201.12
2022-11-14T04:20:40.422Z,101193.75
2022-11-14T04:23:07.930Z,101200.41
2022-11-14T04:25:35.429Z,101197.56
2022-11-14T04:28:02.914Z,101201.22
2022-11-14T04:30:34.576Z,101196.81
2022-11-14T04:33:02.654Z,101169.06
2022-11-14T04:35:30.344Z,101195.16
2022-11-14T04:38:00.206Z,101187.81
2022-11-14T04:40:27.727Z,101196.16
2022-11-14T04:42:55.232Z,101191.16
2022-11-14T04:45:22.776Z,101186.31
2022-11-14T04:47:50.320Z,101176.59
2022-11-14T04:50:18.521Z,101187.28
2022-11-14T04:52:46.033Z,101176.06
2022-11-14T04:55:13.634Z,101177.72
2022-11-14T04:57:41.147Z,101169.19
2022-11-14T05:00:09.838Z,101172.72
2022-11-14T05:02:39.458Z,101166.69
2022-11-14T05:05:07.351Z,101168.72
2022-11-14T05:07:34.930Z,101158.69
2022-11-14T05:10:02.648Z,101169.25
2022-11-14T05:12:30.589Z,101168.19
2022-11-14T05:14:58.202Z,101166.66
2022-11-14T05:17:25.926Z,101165.13
2022-11-14T05:19:53.462Z,101151.72
2022-11-14T05:22:21.069Z,101152.37
2022-11-14T05:24:51.236Z,101150.50
2022-11-14T05:27:18.715Z,101151.91
2022-11-14T05:29:46.242Z,101154.69
2022-11-14T05:32:16.238Z,101160.72
2022-11-14T05:34:44.057Z,101167.41
2022-11-14T05:37:11.628Z,101162.50
2022-11-14T05:39:39.304Z,101158.03
2022-11-14T05:42:07.382Z,101163.41
2022-11-14T05:44:34.906Z,101166.97
2022-11-14T05:47:02.633Z,101171.81
2022-11-14T05:49:30.170Z,101160.78
2022-11-14T05:51:57.759Z,101158.47
2022-11-14T05:54:25.299Z,101163.31
2022-11-14T05:56:52.857Z,101168.78
2022-11-14T05:59:20.454Z,101165.66
2022-11-14T06:01:48.035Z,101157.94
2022-11-14T06:04:15.800Z,101158.47
2022-11-14T06:06:43.420Z,101165.50
2022-11-14T06:09:13.183Z,101161.16
2022-11-14T06:11:40.770Z,101168.19
2022-11-14T06:14:10.887Z,101175.91
2022-11-14T06:16:38.934Z,101171.19
2022-11-14T06:19:06.497Z,101174.19
2022-11-14T06:21:34.088Z,101185.59
2022-11-14T06:24:01.575Z,101187.38
2022-11-14T06:26:31.814Z,101183.31
2022-11-14T06:29:00.589Z,101188.81
2022-11-14T06:31:28.866Z,101193.63
2022-11-14T06:33:56.843Z,101199.75
2022-11-14T06:36:24.390Z,101196.31
2022-11-14T06:38:51.993Z,101205.31
2022-11-14T06:41:23.466Z,101191.78
2022-11-14T06:43:52.994Z,101192.50
2022-11-14T06:46:22.996Z,101182.87
2022-11-14T06:48:51.453Z,101191.06
2022-11-14T06:51:20.871Z,101189.22
2022-11-14T06:53:50.764Z,101182.06
2022-11-14T06:56:20.230Z,101188.66
2022-11-14T06:58:51.640Z,101197.75
2022-11-14T07:01:25.944Z,101185.28
2022-11-14T07:03:53.818Z,101187.62
2022-11-14T07:06:27.649Z,101196.88
2022-11-14T07:08:59.952Z,101192.31
2022-11-14T07:11:29.481Z,101193.91
2022-11-14T07:13:59.629Z,101204.47
2022-11-14T07:16:31.596Z,101206.09
2022-11-14T07:19:01.721Z,101199.94
2022-11-14T07:21:30.775Z,101191.78
2022-11-14T07:24:03.616Z,101208.56
2022-11-14T07:26:33.517Z,101197.00
2022-11-14T07:29:02.725Z,101189.56
2022-11-14T07:31:30.585Z,101185.78
2022-11-14T07:33:58.187Z,101189.75
2022-11-14T07:36:25.886Z,101190.97
2022-11-14T07:38:56.923Z,101185.47
2022-11-14T07:41:24.533Z,101179.44
2022-11-14T07:43:52.019Z,101181.94
2022-11-14T07:46:19.949Z,101180.91
2022-11-14T07:48:47.522Z,101178.59
2022-11-14T07:51:20.641Z,101188.72
2022-11-14T07:53:48.161Z,101184.72
2022-11-14T07:56:17.180Z,101189.97
2022-11-14T07:58:44.783Z,101189.13
2022-11-14T08:01:14.054Z,101198.06
2022-11-14T08:03:45.733Z,101187.19
2022-11-14T08:06:16.681Z,101184.22
2022-11-14T08:08:44.659Z,101196.81
2022-11-14T08:11:12.629Z,101194.75
2022-11-14T08:13:40.167Z,101189.37
2022-11-14T08:16:13.526Z,101184.62
2022-11-14T08:18:42.551Z,101181.47
2022-11-14T08:21:12.427Z,101175.28
2022-11-14T08:23:39.979Z,101178.38
2022-11-14T08:26:07.516Z,101169.94
2022-11-14T08:28:35.207Z,101163.38
2022-11-14T08:31:05.009Z,101155.56
2022-11-14T08:33:35.732Z,101161.44
2022-11-14T08:36:08.078Z,101162.59
2022-11-14T08:38:38.525Z,101163.34
2022-11-14T08:41:07.043Z,101161.19
2022-11-14T08:43:34.842Z,101159.81
2022-11-14T08:46:04.215Z,101160.50
2022-11-14T08:48:33.258Z,101154.53
2022-11-14T08:51:10.413Z,101156.97
2022-11-14T08:53:39.437Z,101156.09
2022-11-14T08:56:07.192Z,101150.44
2022-11-14T08:58:34.829Z,101158.66
2022-11-14T09:01:07.891Z,101158.66
2022-11-14T09:03:35.880Z,101159.28
2022-11-14T09:06:04.177Z,101157.25
2022-11-14T09:08:34.581Z,101151.94
2022-11-14T09:11:09.221Z,101148.87
2022-11-14T09:13:37.941Z,101149.22
2022-11-14T09:16:05.776Z,101158.78
2022-11-14T09:18:34.534Z,101156.84
2022-11-14T09:21:08.179Z,101154.88
2022-11-14T09:23:36.701Z,101163.75
2022-11-14T09:26:08.719Z,101151.41
2022-11-14T09:28:37.579Z,101155.09
2022-11-14T09:31:12.050Z,101143.47
2022-11-14T09:33:39.997Z,101155.78
2022-11-14T09:36:10.250Z,101147.78
2022-11-14T09:38:40.495Z,101147.81
2022-11-14T09:41:27.857Z,101150.75
2022-11-14T09:44:05.160Z,101147.56
2022-11-14T09:46:45.747Z,101143.94
2022-11-14T09:49:29.138Z,101144.81
2022-11-14T09:52:04.487Z,101145.87
2022-11-14T09:54:45.775Z,101131.91
2022-11-14T09:57:19.289Z,101125.53
2022-11-14T09:59:47.265Z,101126.47
2022-11-14T10:02:42.284Z,101125.31
2022-11-14T10:05:24.292Z,101122.84
2022-11-14T10:08:19.603Z,101124.19
2022-11-14T10:10:55.690Z,101117.63
2022-11-14T10:13:35.245Z,101117.06
2022-11-14T10:16:13.738Z,101110.22
2022-11-14T10:18:48.693Z,101104.78
2022-11-14T10:21:24.966Z,101103.44
2022-11-14T10:24:18.192Z,101100.81
2022-11-14T10:26:54.033Z,101097.41
2022-11-14T10:29:48.477Z,101093.72
2022-11-14T10:32:23.318Z,101082.75
2022-11-14T10:34:59.514Z,101085.03
2022-11-14T10:37:37.155Z,101081.41
2022-11-14T10:40:21.753Z,101076.72
2022-11-14T10:43:08.367Z,101073.56
2022-11-14T10:45:42.756Z,101069.12
2022-11-14T10:48:14.845Z,101062.53
2022-11-14T10:50:53.579Z,101068.34
2022-11-14T10:53:29.629Z,101063.75
2022-11-14T10:56:04.384Z,101060.00
2022-11-14T10:58:46.849Z,101058.84
2022-11-14T11:01:54.943Z,101053.47
2022-11-14T11:04:28.675Z,101049.50
2022-11-14T11:07:32.508Z,101047.00
2022-11-14T11:10:18.711Z,101044.16
2022-11-14T11:12:50.329Z,101042.25
2022-11-14T11:15:22.234Z,101040.41
2022-11-14T11:18:31.264Z,101034.78
2022-11-14T11:21:09.944Z,101032.03
2022-11-14T11:23:49.541Z,101025.06
2022-11-14T11:26:19.935Z,101025.59
2022-11-14T11:29:04.698Z,101021.28
2022-11-14T11:31:52.850Z,101015.91
2022-11-14T11:34:33.277Z,101012.44
2022-11-14T11:37:19.636Z,101012.47
2022-11-14T11:39:53.760Z,101010.78
2022-11-14T11:42:42.879Z,101005.03
2022-11-14T11:45:19.882Z,101008.03
2022-11-14T11:48:04.263Z,101007.34
2022-11-14T11:50:31.888Z,101006.00
2022-11-14T11:53:14.749Z,100995.31
2022-11-14T11:55:49.510Z,100990.41
2022-11-14T11:58:30.788Z,100990.50
2022-11-14T12:00:58.510Z,100987.44
2022-11-14T12:03:27.258Z,100982.66
2022-11-14T12:05:57.679Z,100982.75
2022-11-14T12:08:49.586Z,100977.88
2022-11-14T12:11:24.202Z,100975.91
2022-11-14T12:14:03.667Z,100970.00
2022-11-14T12:16:55.950Z,100962.50
2022-11-14T12:19:32.574Z,100957.28
2022-11-14T12:22:15.279Z,100950.84
2022-11-14T12:25:07.680Z,100949.88
2022-11-14T12:27:59.839Z,100951.28
2022-11-14T12:30:29.038Z,100943.84
2022-11-14T12:33:06.373Z,100942.94
2022-11-14T12:35:36.809Z,100934.50
2022-11-14T12:38:07.404Z,100930.78
2022-11-14T12:40:39.497Z,100930.69
2022-11-14T12:43:37.767Z,100923.50
2022-11-14T12:46:11.128Z,100922.41
2022-11-14T12:48:40.717Z,100924.59
2022-11-14T12:51:26.834Z,100914.78
2022-11-14T12:53:58.397Z,100916.28
2022-11-14T12:56:32.024Z,100916.97
2022-11-14T12:59:49.770Z,100915.88
2022-11-14T13:02:45.364Z,100907.63
2022-11-14T13:05:37.469Z,100905.47
2022-11-14T13:08:11.001Z,100899.28
2022-11-14T13:10:40.572Z,100904.47
2022-11-14T13:13:42.021Z,100900.38
2022-11-14T13:16:43.759Z,100899.59
2022-11-14T13:19:28.510Z,100901.72
2022-11-14T13:22:14.472Z,100890.53
2022-11-14T13:24:58.056Z,100887.81
2022-11-14T13:27:45.196Z,100896.50
2022-11-14T13:30:16.181Z,100898.00
2022-11-14T13:32:44.712Z,100897.63
2022-11-14T13:35:40.107Z,100891.28
2022-11-14T13:38:47.472Z,100888.09
2022-11-14T13:41:46.918Z,100883.94
2022-11-14T13:44:39.844Z,100886.75
2022-11-14T13:47:07.316Z,100879.59
2022-11-14T13:49:57.789Z,100869.81
2022-11-14T13:52:30.543Z,100868.06
2022-11-14T13:54:58.754Z,100867.31
2022-11-14T13:57:59.261Z,100864.13
2022-11-14T14:00:31.453Z,100864.25
2022-11-14T14:03:13.040Z,100863.34
2022-11-14T14:05:57.236Z,100862.66
2022-11-14T14:08:49.136Z,100852.94
2022-11-14T14:11:43.197Z,100849.06
2022-11-14T14:14:21.068Z,100852.16
2022-11-14T14:17:05.381Z,100856.19
2022-11-14T14:19:57.710Z,100851.22
2022-11-14T14:22:52.987Z,100860.91
2022-11-14T14:25:28.481Z,100856.28
2022-11-14T14:28:06.422Z,100862.34
2022-11-14T14:30:34.125Z,100863.59
2022-11-14T14:33:17.731Z,100852.62
2022-11-14T14:35:53.158Z,100858.97
2022-11-14T14:38:27.128Z,100857.78
2022-11-14T14:41:00.919Z,100856.34
2022-11-14T14:43:36.314Z,100855.78
2022-11-14T14:46:04.344Z,100858.84
2022-11-14T14:48:37.133Z,100845.38
2022-11-14T14:51:05.900Z,100845.59
2022-11-14T14:53:35.496Z,100842.91
2022-11-14T14:56:19.211Z,100841.63
2022-11-14T14:58:46.961Z,100848.50
2022-11-14T15:01:19.993Z,100844.78
2022-11-14T15:03:54.142Z,100845.16
2022-11-14T15:06:35.234Z,100837.16
2022-11-14T15:09:08.742Z,100842.78
2022-11-14T15:11:40.573Z,100843.53
2022-11-14T15:14:15.406Z,100833.91
2022-11-14T15:16:44.992Z,100840.66
2022-11-14T15:19:17.730Z,100841.81
2022-11-14T15:21:45.413Z,100841.31
2022-11-14T15:24:24.141Z,100828.28
2022-11-14T15:26:52.631Z,100832.28
2022-11-14T15:29:26.388Z,100835.53
2022-11-14T15:31:59.206Z,100838.66
2022-11-14T15:34:28.346Z,100831.84
2022-11-14T15:37:13.327Z,100835.25
2022-11-14T15:39:42.044Z,100827.56
2022-11-14T15:42:29.889Z,100825.31
2022-11-14T15:44:57.850Z,100827.41
2022-11-14T15:47:27.975Z,100832.41
2022-11-14T15:50:03.025Z,100832.44
2022-11-14T15:52:40.251Z,100822.47
2022-11-14T15:55:19.685Z,100830.59
2022-11-14T15:57:55.840Z,100826.47
2022-11-14T16:00:34.443Z,100823.34
2022-11-14T16:03:01.994Z,100825.84
2022-11-14T16:05:31.041Z,100830.41
2022-11-14T16:07:58.903Z,100831.62
2022-11-14T16:10:28.850Z,100827.50
2022-11-14T16:12:56.446Z,100821.69
2022-11-14T16:15:24.265Z,100832.69
2022-11-14T16:17:51.926Z,100831.00
2022-11-14T16:20:45.935Z,100826.22
2022-11-14T16:23:16.759Z,100839.69
2022-11-14T16:25:44.346Z,100837.81
2022-11-14T16:28:11.863Z,100835.50
2022-11-14T16:30:39.422Z,100838.59
2022-11-14T16:33:06.987Z,100839.63
2022-11-14T16:35:34.895Z,100837.53
2022-11-14T16:38:03.681Z,100833.81
2022-11-14T16:40:31.231Z,100837.94
2022-11-14T16:43:01.499Z,100834.38
2022-11-14T16:45:32.005Z,100834.97
2022-11-14T16:48:00.977Z,100836.38
2022-11-14T16:50:29.037Z,100840.53
2022-11-14T16:52:56.606Z,100844.44
2022-11-14T16:55:26.434Z,100838.00
2022-11-14T16:57:53.962Z,100840.06
2022-11-14T17:00:21.675Z,100843.34
2022-11-14T17:02:49.254Z,100846.00
2022-11-14T17:05:16.966Z,100843.09
2022-11-14T17:07:44.480Z,100841.22
2022-11-14T17:10:13.282Z,100844.53
2022-11-14T17:12:40.850Z,100843.25
2022-11-14T17:15:08.843Z,100855.41
2022-11-14T17:17:36.378Z,100851.06
2022-11-14T17:20:03.930Z,100846.09
2022-11-14T17:22:31.503Z,100841.09
2022-11-14T17:24:59.037Z,100835.28
2022-11-14T17:27:26.532Z,100833.63
2022-11-14T17:29:54.175Z,100836.91
2022-11-14T17:32:26.788Z,100818.22
2022-11-14T17:34:54.325Z,100830.66
2022-11-14T17:37:21.885Z,100831.22
2022-11-14T17:39:49.425Z,100821.47
2022-11-14T17:42:17.027Z,100820.84
2022-11-14T17:44:44.526Z,100806.50
2022-11-14T17:47:12.088Z,100819.75
2022-11-14T17:49:39.634Z,100823.03
2022-11-14T17:52:09.425Z,100826.13
2022-11-14T17:54:37.813Z,100815.91
2022-11-14T17:57:10.647Z,100816.09
2022-11-14T17:59:38.842Z,100813.19
2022-11-14T18:02:06.442Z,100819.59
2022-11-14T18:04:34.021Z,100820.37
2022-11-14T18:07:04.079Z,100815.38
2022-11-14T18:09:31.694Z,100806.22
2022-11-14T18:12:01.603Z,100812.81
2022-11-14T18:14:29.158Z,100797.69
2022-11-14T18:17:12.296Z,100811.34
2022-11-14T18:19:40.881Z,100813.19
2022-11-14T18:22:08.405Z,100806.34
2022-11-14T18:24:35.876Z,100800.94
2022-11-14T18:27:03.718Z,100807.31
2022-11-14T18:29:31.231Z,100807.53
2022-11-14T18:31:58.925Z,100811.81
2022-11-14T18:34:26.459Z,100800.16
2022-11-14T18:36:56.098Z,100784.34
2022-11-14T18:39:25.162Z,100804.25
2022-11-14T18:41:52.683Z,100803.81
2022-11-14T18:44:21.121Z,100801.31
2022-11-14T18:46:48.604Z,100801.31
2022-11-14T18:49:16.164Z,100802.16
2022-11-14T18:51:43.785Z,100808.09
2022-11-14T18:54:16.244Z,100805.41
2022-11-14T18:56:43.991Z,100808.47
2022-11-14T18:59:11.578Z,100798.75
2022-11-14T19:01:39.224Z,100803.50
2022-11-14T19:04:11.447Z,100794.75
2022-11-14T19:06:41.320Z,100801.00
2022-11-14T19:09:18.268Z,100797.44
2022-11-14T19:12:03.412Z,100786.91
2022-11-14T19:14:30.929Z,100795.16
2022-11-14T19:16:59.519Z,100791.81
2022-11-14T19:19:27.225Z,100779.59
2022-11-14T19:21:57.138Z,100789.53
2022-11-14T19:24:24.706Z,100781.22
2022-11-14T19:26:52.254Z,100789.91
2022-11-14T19:29:22.101Z,100789.84
2022-11-14T19:31:49.622Z,100792.72
2022-11-14T19:34:17.253Z,100795.16
2022-11-14T19:36:59.431Z,100792.47
2022-11-14T19:39:28.122Z,100779.56
2022-11-14T19:41:55.862Z,100783.56
2022-11-14T19:44:25.900Z,100781.72
2022-11-14T19:46:53.441Z,100778.75
2022-11-14T19:49:21.143Z,100781.62
2022-11-14T19:51:49.962Z,100783.72
2022-11-14T19:54:17.958Z,100785.50
2022-11-14T19:56:51.214Z,100788.00
2022-11-14T19:59:23.055Z,100786.72
2022-11-14T20:01:55.632Z,100782.56
2022-11-14T20:04:23.837Z,100775.53
2022-11-14T20:06:51.610Z,100779.25
2022-11-14T20:09:19.210Z,100778.16
2022-11-14T20:11:46.939Z,100775.28
2022-11-14T20:14:17.319Z,100771.75
2022-11-14T20:16:46.142Z,100759.94
2022-11-14T20:19:14.191Z,100762.63
2022-11-14T20:21:42.792Z,100769.00
2022-11-14T20:24:14.318Z,100770.00
2022-11-14T20:26:41.894Z,100758.16
2022-11-14T20:29:10.032Z,100754.47
2022-11-14T20:31:37.585Z,100746.16
2022-11-14T20:34:05.177Z,100756.06
2022-11-14T20:36:56.603Z,100751.97
2022-11-14T20:39:23.000Z,100755.28
2022-11-14T20:41:51.888Z,100749.28
2022-11-14T20:44:19.931Z,100761.09
2022-11-14T20:46:49.885Z,100759.75
2022-11-14T20:49:17.605Z,100761.22
2022-11-14T20:51:45.108Z,100755.47
2022-11-14T20:54:14.442Z,100747.41
2022-11-14T20:56:44.169Z,100752.78
2022-11-14T20:59:11.686Z,100754.69
2022-11-14T21:01:43.547Z,100734.75
2022-11-14T21:04:11.737Z,100747.31
2022-11-14T21:06:42.136Z,100743.91
2022-11-14T21:09:10.740Z,100744.63
2022-11-14T21:11:39.470Z,100740.34
2022-11-14T21:14:09.044Z,100732.72
2022-11-14T21:16:38.831Z,100732.75
2022-11-14T21:19:07.631Z,100723.12
2022-11-14T21:21:37.084Z,100726.81
2022-11-14T21:24:05.477Z,100718.81
2022-11-14T21:26:34.861Z,100715.53
2022-11-14T21:29:08.124Z,100717.63
2022-11-14T21:31:45.560Z,100707.03
2022-11-14T21:34:15.659Z,100714.22
2022-11-14T21:36:45.487Z,100713.75
2022-11-14T21:39:17.535Z,100711.25
2022-11-14T21:41:48.202Z,100714.53
2022-11-14T21:44:17.670Z,100708.53
2022-11-14T21:46:48.983Z,100705.41
2022-11-14T21:49:16.761Z,100693.31
2022-11-14T21:51:44.443Z,100697.28
2022-11-14T21:54:12.022Z,100691.72
2022-11-14T21:56:39.634Z,100689.66
2022-11-14T21:59:15.127Z,100693.12
2022-11-14T22:02:02.139Z,100688.31
2022-11-14T22:04:31.358Z,100692.41
2022-11-14T22:07:00.518Z,100691.59
2022-11-14T22:09:29.353Z,100688.66
2022-11-14T22:11:57.756Z,100685.78
2022-11-14T22:14:28.089Z,100682.44
2022-11-14T22:16:58.067Z,100676.06
2022-11-14T22:19:25.934Z,100675.81
2022-11-14T22:21:54.196Z,100670.81
2022-11-14T22:24:24.489Z,100675.94
2022-11-14T22:26:52.043Z,100670.75
2022-11-14T22:29:19.907Z,100670.28
2022-11-14T22:31:47.767Z,100671.97
2022-11-14T22:34:15.277Z,100661.22
2022-11-14T22:36:42.771Z,100645.38
2022-11-14T22:39:10.310Z,100666.47
2022-11-14T22:41:37.962Z,100670.38
2022-11-14T22:44:05.562Z,100668.53
2022-11-14T22:46:33.093Z,100662.69
2022-11-14T22:49:02.936Z,100663.28
2022-11-14T22:51:30.500Z,100660.94
2022-11-14T22:54:00.764Z,100655.97
2022-11-14T22:56:30.526Z,100661.78
2022-11-14T22:59:01.887Z,100663.63
2022-11-14T23:01:36.344Z,100659.28
2022-11-14T23:04:10.069Z,100651.03
2022-11-14T23:06:37.597Z,100635.97
2022-11-14T23:09:05.340Z,100635.84
2022-11-14T23:11:35.732Z,100642.31
2022-11-14T23:14:05.385Z,100646.47
2022-11-14T23:16:34.618Z,100640.50
2022-11-14T23:19:11.063Z,100635.56
2022-11-14T23:21:38.988Z,100637.72
2022-11-14T23:24:12.556Z,100636.28
2022-11-14T23:26:40.156Z,100636.28
2022-11-14T23:29:07.656Z,100632.19
2022-11-14T23:31:37.523Z,100632.19
2022-11-14T23:34:05.049Z,100633.84
2022-11-14T23:36:32.564Z,100629.12
2022-11-14T23:39:05.048Z,100631.00
2022-11-14T23:41:32.574Z,100624.63
2022-11-14T23:44:00.183Z,100626.50
2022-11-14T23:46:27.759Z,100622.25
2022-11-14T23:48:55.365Z,100622.03
2022-11-14T23:51:22.888Z,100622.91
2022-11-14T23:53:50.683Z,100617.78
2022-11-14T23:56:20.595Z,100588.97
2022-11-14T23:58:48.073Z,100607.47
